Time;durP1;ratioP1;P1;durP2;ratioP2;P2;SDS_P1;SDS_P2;PMS_P1;PMS_P2;Temp;Humidity;BMP_temperature;BMP_pressure;BME280_temperature;BME280_humidity;BME280_pressure;Samples;Min_cycle;Max_cycle;Signal;HPM_P1;HPM_P2
2022/03/12 00:01:24;;;;;;;6.83;4.60;;;8.20;26.20;;;;;;5084237;28;21004;-85
2022/03/12 00:03:53;;;;;;;8.77;4.70;;;8.20;27.20;;;;;;5077915;28;20452;-85
2022/03/12 00:06:23;;;;;;;9.13;4.50;;;8.20;26.70;;;;;;5071021;28;20529;-84
2022/03/12 00:08:51;;;;;;;7.90;4.27;;;8.20;26.30;;;;;;5076275;28;20921;-84
2022/03/12 00:11:20;;;;;;;6.93;4.57;;;8.10;26.00;;;;;;5077232;28;20503;-84
2022/03/12 00:13:50;;;;;;;8.27;4.67;;;8.10;25.90;;;;;;5084654;28;20455;-84
2022/03/12 00:16:21;;;;;;;8.30;4.60;;;8.10;25.70;;;;;;5071240;28;20455;-84
2022/03/12 00:18:52;;;;;;;6.23;4.67;;;8.10;26.30;;;;;;5055074;28;20636;-85
2022/03/12 00:21:29;;;;;;;11.43;4.60;;;8.10;25.80;;;;;;5087335;28;20481;-84
2022/03/12 00:23:58;;;;;;;11.53;5.70;;;8.00;25.10;;;;;;5085148;28;20447;-84
2022/03/12 00:26:27;;;;;;;9.20;5.60;;;7.80;25.00;;;;;;5091566;28;20496;-84
2022/03/12 00:28:55;;;;;;;12.90;6.47;;;7.70;26.10;;;;;;5084875;28;20463;-84
2022/03/12 00:31:22;;;;;;;7.97;4.83;;;7.80;26.40;;;;;;5085402;28;20474;-85
2022/03/12 00:33:49;;;;;;;9.63;5.37;;;8.00;26.40;;;;;;5093866;28;20450;-84
2022/03/12 00:36:17;;;;;;;11.80;5.27;;;8.00;26.20;;;;;;5085982;28;20535;-84
2022/03/12 00:38:45;;;;;;;12.10;5.67;;;8.10;26.20;;;;;;5084168;28;20455;-83
2022/03/12 00:41:13;;;;;;;9.73;4.93;;;8.10;26.00;;;;;;5073944;28;20541;-84
2022/03/12 00:43:41;;;;;;;11.30;5.07;;;8.20;26.40;;;;;;5076504;28;20440;-85
2022/03/12 00:46:09;;;;;;;9.80;6.10;;;8.20;26.60;;;;;;5086059;28;21251;-86
2022/03/12 00:48:36;;;;;;;15.37;6.13;;;8.20;26.60;;;;;;5082480;28;20458;-85
2022/03/12 00:51:03;;;;;;;12.37;6.20;;;8.10;26.60;;;;;;5085425;28;20467;-84
2022/03/12 00:53:30;;;;;;;18.50;7.67;;;8.10;26.60;;;;;;5088788;28;20449;-84
2022/03/12 00:55:57;;;;;;;9.30;5.03;;;8.10;26.20;;;;;;5072962;28;20461;-85
2022/03/12 00:58:25;;;;;;;8.23;5.17;;;8.10;26.50;;;;;;5088566;28;20466;-84
2022/03/12 01:00:51;;;;;;;10.17;5.33;;;8.10;26.80;;;;;;5084769;28;20978;-84
2022/03/12 01:03:20;;;;;;;7.00;4.10;;;8.10;26.70;;;;;;5089263;28;20455;-85
2022/03/12 01:05:56;;;;;;;8.47;4.37;;;8.00;26.00;;;;;;5073856;28;20487;-84
2022/03/12 01:08:24;;;;;;;7.30;4.70;;;7.90;26.10;;;;;;5097927;28;20696;-84
2022/03/12 01:10:52;;;;;;;7.00;4.10;;;7.80;26.50;;;;;;5073546;28;20481;-85
2022/03/12 01:13:20;;;;;;;5.10;4.07;;;7.80;27.30;;;;;;5081816;28;20456;-85
2022/03/12 01:15:48;;;;;;;6.00;4.00;;;7.80;27.00;;;;;;5088722;28;20526;-84
2022/03/12 01:18:19;;;;;;;10.50;4.70;;;7.80;26.80;;;;;;5091966;28;20451;-84
2022/03/12 01:20:48;;;;;;;11.20;4.80;;;7.70;26.80;;;;;;5091139;28;20973;-85
2022/03/12 01:23:17;;;;;;;6.00;4.03;;;7.70;27.20;;;;;;5092657;28;20471;-85
2022/03/12 01:25:46;;;;;;;6.30;4.87;;;7.60;28.00;;;;;;5090240;28;20450;-84
2022/03/12 01:28:15;;;;;;;6.37;4.43;;;7.60;28.10;;;;;;5077689;28;21054;-85
2022/03/12 01:30:42;;;;;;;9.60;4.90;;;7.70;27.90;;;;;;5091509;28;20455;-84
2022/03/12 01:33:10;;;;;;;9.47;4.57;;;7.70;27.80;;;;;;5082079;28;20482;-85
2022/03/12 01:35:37;;;;;;;5.43;4.33;;;7.70;27.90;;;;;;5093221;28;20461;-83
2022/03/12 01:38:07;;;;;;;6.03;4.20;;;7.70;28.10;;;;;;5091084;28;20447;-84
2022/03/12 01:40:34;;;;;;;7.23;4.43;;;7.60;27.70;;;;;;5100737;28;20466;-85
2022/03/12 01:43:02;;;;;;;5.60;4.10;;;7.60;27.10;;;;;;5090437;28;20487;-84
2022/03/12 01:45:29;;;;;;;9.17;4.33;;;7.60;26.60;;;;;;5092620;28;20916;-84
2022/03/12 01:47:56;;;;;;;5.53;3.20;;;7.60;27.00;;;;;;5091992;28;20449;-84
2022/03/12 01:50:28;;;;;;;5.93;4.17;;;7.60;27.20;;;;;;5075512;28;20459;-84
2022/03/12 01:52:59;;;;;;;6.60;3.80;;;7.60;27.40;;;;;;5081099;28;21193;-85
2022/03/12 01:55:30;;;;;;;7.30;3.67;;;7.60;27.80;;;;;;5100074;28;20447;-84
2022/03/12 01:57:58;;;;;;;4.83;3.83;;;7.70;27.70;;;;;;5090817;28;20458;-83
2022/03/12 02:00:27;;;;;;;4.70;3.33;;;7.70;27.50;;;;;;5089526;28;20458;-85
2022/03/12 02:02:54;;;;;;;6.47;3.70;;;7.70;28.10;;;;;;5088980;28;20486;-85
2022/03/12 02:05:27;;;;;;;7.87;4.77;;;7.70;27.90;;;;;;5097688;28;20881;-85
2022/03/12 02:07:56;;;;;;;5.53;3.70;;;7.70;28.00;;;;;;5081420;28;21032;-85
2022/03/12 02:10:24;;;;;;;6.77;4.10;;;7.70;28.10;;;;;;5073956;28;20505;-85
2022/03/12 02:12:52;;;;;;;5.50;4.07;;;7.70;27.90;;;;;;5086735;28;20467;-85
2022/03/12 02:15:20;;;;;;;6.00;4.00;;;7.70;27.90;;;;;;5090432;28;20467;-85
2022/03/12 02:17:47;;;;;;;10.00;4.07;;;7.70;27.60;;;;;;5089876;28;20455;-84
2022/03/12 02:20:17;;;;;;;17.00;4.60;;;7.60;26.80;;;;;;5091460;28;21073;-84
2022/03/12 02:22:53;;;;;;;8.47;5.13;;;7.50;27.50;;;;;;5098339;28;20462;-84
2022/03/12 02:25:28;;;;;;;7.00;4.77;;;7.60;27.70;;;;;;5091170;28;20481;-84
2022/03/12 02:27:56;;;;;;;4.60;4.07;;;7.60;27.50;;;;;;5076350;28;21023;-84
2022/03/12 02:30:28;;;;;;;7.23;4.00;;;7.60;28.00;;;;;;5072125;28;20452;-86
2022/03/12 02:32:58;;;;;;;10.33;4.47;;;7.70;27.90;;;;;;5089684;28;20520;-84
2022/03/12 02:35:25;;;;;;;6.20;3.90;;;7.60;28.00;;;;;;5090563;28;20440;-85
2022/03/12 02:37:52;;;;;;;11.13;4.30;;;7.60;28.20;;;;;;5088977;28;20827;-85
2022/03/12 02:40:20;;;;;;;7.50;4.20;;;7.60;28.30;;;;;;5088566;28;20598;-84
2022/03/12 02:42:50;;;;;;;9.43;4.67;;;7.50;27.40;;;;;;5077077;28;20466;-84
2022/03/12 02:45:23;;;;;;;9.80;4.43;;;7.50;27.20;;;;;;5090466;28;20444;-84
2022/03/12 02:47:50;;;;;;;6.20;3.10;;;7.40;27.30;;;;;;5085816;28;20446;-82
2022/03/12 02:50:18;;;;;;;5.33;3.87;;;7.40;27.10;;;;;;5088706;28;20464;-84
2022/03/12 02:52:46;;;;;;;6.90;4.30;;;7.30;27.50;;;;;;5080204;28;20866;-84
2022/03/12 02:55:17;;;;;;;7.40;4.80;;;7.30;27.20;;;;;;5081209;28;20438;-84
2022/03/12 02:57:46;;;;;;;11.77;5.80;;;7.10;27.40;;;;;;5091256;28;21253;-85
2022/03/12 03:00:16;;;;;;;7.00;5.00;;;7.20;28.70;;;;;;5088010;28;20539;-85
2022/03/12 03:02:48;;;;;;;6.93;4.20;;;7.20;29.10;;;;;;5090309;28;20593;-84
2022/03/12 03:05:29;;;;;;;7.07;4.40;;;7.20;28.60;;;;;;5087252;28;20504;-85
2022/03/12 03:07:57;;;;;;;9.83;3.40;;;7.30;28.60;;;;;;5086566;28;20837;-85
2022/03/12 03:10:31;;;;;;;5.47;3.40;;;7.30;28.20;;;;;;5090909;28;20654;-84
2022/03/12 03:12:58;;;;;;;11.33;3.67;;;7.30;28.00;;;;;;5106410;27;20505;-84
2022/03/12 03:15:27;;;;;;;5.10;3.83;;;7.30;28.20;;;;;;5088314;28;20461;-85
2022/03/12 03:17:55;;;;;;;4.40;3.97;;;7.30;28.30;;;;;;5089126;28;20448;-86
2022/03/12 03:20:23;;;;;;;7.07;3.80;;;7.30;28.60;;;;;;5087753;28;21117;-85
2022/03/12 03:22:50;;;;;;;6.93;4.20;;;7.30;29.00;;;;;;5086876;28;20479;-85
2022/03/12 03:25:18;;;;;;;5.53;3.63;;;7.30;28.80;;;;;;5090696;28;20455;-83
2022/03/12 03:27:47;;;;;;;7.37;3.70;;;7.30;28.20;;;;;;5093027;28;20586;-83
2022/03/12 03:30:14;;;;;;;7.07;3.53;;;7.30;28.70;;;;;;5088275;28;20447;-85
2022/03/12 03:32:42;;;;;;;6.17;3.17;;;7.30;28.80;;;;;;5071596;28;20463;-85
2022/03/12 03:35:09;;;;;;;4.90;3.00;;;7.20;27.90;;;;;;5087538;28;20494;-84
2022/03/12 03:37:36;;;;;;;6.10;3.60;;;7.10;28.30;;;;;;5072255;28;20452;-84
2022/03/12 03:40:04;;;;;;;6.30;2.93;;;7.00;28.00;;;;;;5073546;28;20451;-84
2022/03/12 03:42:31;;;;;;;4.73;3.60;;;6.80;27.50;;;;;;5071820;28;21367;-86
2022/03/12 03:45:02;;;;;;;4.70;3.20;;;6.80;27.50;;;;;;5087074;28;20454;-84
2022/03/12 03:47:29;;;;;;;3.20;2.80;;;6.50;27.20;;;;;;5091935;28;20448;-85
2022/03/12 03:49:57;;;;;;;5.90;2.90;;;6.40;27.80;;;;;;5072146;28;20458;-84
2022/03/12 03:52:24;;;;;;;6.87;3.53;;;6.50;27.60;;;;;;5088553;28;20473;-84
2022/03/12 03:54:51;;;;;;;7.30;3.87;;;6.60;28.20;;;;;;5084809;28;20435;-84
2022/03/12 03:57:19;;;;;;;5.43;3.67;;;6.70;28.30;;;;;;5087355;28;20457;-84
2022/03/12 03:59:48;;;;;;;3.53;2.77;;;6.80;27.80;;;;;;5086006;28;20479;-84
2022/03/12 04:02:16;;;;;;;3.80;2.57;;;6.90;28.10;;;;;;5085919;28;20552;-85
2022/03/12 04:04:43;;;;;;;3.40;2.93;;;7.00;28.50;;;;;;5068889;28;20436;-85
2022/03/12 04:07:13;;;;;;;4.30;3.03;;;7.10;28.80;;;;;;5074431;28;20950;-85
2022/03/12 04:09:40;;;;;;;5.70;3.67;;;7.20;28.90;;;;;;5096132;28;20938;-85
2022/03/12 04:12:08;;;;;;;3.90;2.40;;;7.20;28.80;;;;;;5087442;28;20467;-85
2022/03/12 04:14:35;;;;;;;4.07;3.67;;;7.20;28.70;;;;;;5089982;28;20447;-85
2022/03/12 04:17:04;;;;;;;7.00;3.73;;;7.30;28.60;;;;;;5087715;28;21132;-82
2022/03/12 04:19:33;;;;;;;8.63;3.73;;;7.30;28.60;;;;;;5088084;28;20540;-86
2022/03/12 04:22:01;;;;;;;3.40;2.87;;;7.20;27.90;;;;;;5096893;28;20558;-82
2022/03/12 04:24:29;;;;;;;3.70;2.77;;;7.30;28.80;;;;;;5079049;28;20453;-85
2022/03/12 04:26:56;;;;;;;5.40;3.40;;;7.30;28.90;;;;;;5069382;28;20451;-85
2022/03/12 04:29:23;;;;;;;5.87;3.40;;;7.30;29.30;;;;;;5087268;28;20452;-86
2022/03/12 04:31:50;;;;;;;8.87;3.60;;;7.30;29.20;;;;;;5071693;28;21032;-84
2022/03/12 04:34:17;;;;;;;3.30;2.97;;;7.30;28.90;;;;;;5088013;28;20447;-85
2022/03/12 04:36:46;;;;;;;5.73;3.37;;;7.20;28.70;;;;;;5086694;28;20462;-83
2022/03/12 04:39:13;;;;;;;6.27;3.10;;;7.20;28.30;;;;;;5086110;28;21301;-86
2022/03/12 04:41:41;;;;;;;6.20;3.60;;;7.20;28.60;;;;;;5089556;28;20974;-84
2022/03/12 04:44:09;;;;;;;3.73;2.57;;;7.10;29.30;;;;;;5077406;28;20482;-85
2022/03/12 04:46:37;;;;;;;4.30;3.03;;;7.20;28.90;;;;;;5088647;28;20455;-84
2022/03/12 04:49:05;;;;;;;4.97;3.23;;;7.20;28.70;;;;;;5086036;28;20462;-85
2022/03/12 04:51:32;;;;;;;4.63;3.00;;;7.30;29.10;;;;;;5089813;28;20960;-84
2022/03/12 04:54:01;;;;;;;4.17;3.50;;;7.30;29.40;;;;;;5086799;28;20452;-85
2022/03/12 04:56:28;;;;;;;6.57;3.00;;;7.30;29.40;;;;;;5089183;28;20469;-85
2022/03/12 04:58:57;;;;;;;6.63;3.60;;;7.30;29.60;;;;;;5089172;28;20469;-85
2022/03/12 05:01:25;;;;;;;6.40;3.20;;;7.30;29.50;;;;;;5089189;28;20477;-85
2022/03/12 05:03:52;;;;;;;8.73;3.97;;;7.30;29.60;;;;;;5089756;28;20463;-84
2022/03/12 05:06:23;;;;;;;6.17;3.83;;;7.30;29.20;;;;;;5085946;28;20455;-85
2022/03/12 05:08:50;;;;;;;6.50;3.30;;;7.30;29.50;;;;;;5085753;28;20439;-85
2022/03/12 05:11:17;;;;;;;6.17;4.40;;;7.40;29.70;;;;;;5077319;28;20973;-84
2022/03/12 05:13:46;;;;;;;5.50;3.53;;;7.30;29.10;;;;;;5088223;28;20451;-84
2022/03/12 05:16:16;;;;;;;5.00;3.43;;;7.30;28.40;;;;;;5084206;28;20536;-85
2022/03/12 05:18:43;;;;;;;4.77;3.10;;;7.30;29.40;;;;;;5085713;28;20451;-84
2022/03/12 05:21:10;;;;;;;7.03;3.90;;;7.30;29.40;;;;;;5087084;28;20473;-84
2022/03/12 05:23:38;;;;;;;6.13;3.27;;;7.30;29.40;;;;;;5089331;28;20463;-86
2022/03/12 05:26:06;;;;;;;5.27;3.60;;;7.30;29.80;;;;;;5087209;28;20458;-85
2022/03/12 05:28:39;;;;;;;4.53;3.13;;;7.40;29.80;;;;;;5085844;28;20443;-84
2022/03/12 05:31:06;;;;;;;7.47;3.50;;;7.40;29.80;;;;;;5086581;28;20608;-85
2022/03/12 05:33:35;;;;;;;5.20;3.40;;;7.40;29.30;;;;;;5087105;28;20969;-86
2022/03/12 05:36:02;;;;;;;7.40;4.30;;;7.40;29.40;;;;;;5085412;28;20452;-85
2022/03/12 05:38:34;;;;;;;3.70;3.13;;;7.40;29.50;;;;;;5088185;28;20459;-85
2022/03/12 05:41:02;;;;;;;4.87;3.67;;;7.40;29.30;;;;;;5093721;28;20519;-84
2022/03/12 05:43:30;;;;;;;3.70;3.03;;;7.40;30.00;;;;;;5081622;28;20481;-85
2022/03/12 05:45:58;;;;;;;5.40;3.27;;;7.40;29.90;;;;;;5091489;28;20440;-84
2022/03/12 05:48:26;;;;;;;3.27;2.60;;;7.40;30.00;;;;;;5096854;28;21131;-84
2022/03/12 05:50:55;;;;;;;4.00;3.20;;;7.40;29.50;;;;;;5089854;28;20451;-85
2022/03/12 05:53:22;;;;;;;5.43;2.73;;;7.40;29.30;;;;;;5090877;28;20500;-85
2022/03/12 05:55:49;;;;;;;6.57;3.57;;;7.40;29.00;;;;;;5091699;28;20451;-85
2022/03/12 05:58:21;;;;;;;4.80;3.30;;;7.50;29.40;;;;;;5089223;28;20459;-85
2022/03/12 06:00:54;;;;;;;5.97;3.33;;;7.50;29.40;;;;;;5073942;28;21018;-85
2022/03/12 06:03:21;;;;;;;4.60;3.40;;;7.50;28.40;;;;;;5091006;28;20481;-85
2022/03/12 06:05:56;;;;;;;4.80;3.20;;;7.50;28.40;;;;;;5091364;28;20447;-85
2022/03/12 06:08:24;;;;;;;4.93;3.40;;;7.50;29.30;;;;;;5092524;28;21203;-85
2022/03/12 06:10:54;;;;;;;8.10;3.30;;;7.50;29.30;;;;;;5056031;28;20432;-85
2022/03/12 06:13:23;;;;;;;5.90;4.17;;;7.50;29.50;;;;;;5090534;28;20467;-84
2022/03/12 06:15:58;;;;;;;5.87;3.53;;;7.50;28.80;;;;;;5089663;28;21157;-85
2022/03/12 06:18:27;;;;;;;9.43;4.83;;;7.50;29.20;;;;;;5089740;28;20430;-85
2022/03/12 06:20:54;;;;;;;8.23;4.80;;;7.50;29.20;;;;;;5089175;28;20547;-85
2022/03/12 06:23:21;;;;;;;3.33;3.00;;;7.50;29.60;;;;;;5087176;28;20868;-86
2022/03/12 06:25:51;;;;;;;5.90;4.10;;;7.60;29.80;;;;;;5090215;28;21270;-84
2022/03/12 06:28:19;;;;;;;5.93;4.07;;;7.60;29.90;;;;;;5089100;28;20459;-85
2022/03/12 06:30:47;;;;;;;5.10;3.43;;;7.60;29.80;;;;;;5091129;28;20444;-84
2022/03/12 06:33:18;;;;;;;3.93;3.50;;;7.60;29.90;;;;;;5091004;28;21151;-86
2022/03/12 06:35:47;;;;;;;4.50;3.70;;;7.60;30.00;;;;;;5088769;28;20439;-85
2022/03/12 06:38:15;;;;;;;5.23;3.77;;;7.60;29.80;;;;;;5090894;28;20447;-85
2022/03/12 06:40:42;;;;;;;5.23;3.10;;;7.60;29.60;;;;;;5089281;28;20436;-84
2022/03/12 06:43:16;;;;;;;5.50;4.20;;;7.60;29.40;;;;;;5063384;28;20588;-85
2022/03/12 06:45:43;;;;;;;11.33;4.63;;;7.60;29.20;;;;;;5094498;28;20442;-85
2022/03/12 06:48:10;;;;;;;10.83;5.17;;;7.70;28.40;;;;;;5087815;28;20452;-85
2022/03/12 06:50:37;;;;;;;13.03;5.93;;;7.60;28.60;;;;;;5091868;28;20482;-85
2022/03/12 06:53:04;;;;;;;10.53;6.30;;;7.60;28.90;;;;;;5088548;28;20961;-84
2022/03/12 06:55:33;;;;;;;14.93;7.40;;;7.60;28.20;;;;;;5086853;28;20448;-84
2022/03/12 06:58:00;;;;;;;17.90;8.00;;;7.70;28.30;;;;;;5080466;28;20527;-84
2022/03/12 07:00:31;;;;;;;14.93;8.83;;;7.70;28.60;;;;;;5091829;28;20466;-85
2022/03/12 07:02:58;;;;;;;14.80;7.10;;;7.70;29.10;;;;;;5092210;28;20489;-85
2022/03/12 07:05:27;;;;;;;13.17;7.20;;;7.70;28.00;;;;;;5090034;28;21023;-84
2022/03/12 07:07:55;;;;;;;12.83;6.50;;;7.70;27.80;;;;;;5087691;28;20444;-85
2022/03/12 07:10:23;;;;;;;9.63;5.37;;;7.70;28.20;;;;;;5088711;28;20452;-85
2022/03/12 07:12:51;;;;;;;12.43;6.03;;;7.70;27.90;;;;;;5065489;28;21030;-86
2022/03/12 07:15:20;;;;;;;10.77;5.07;;;7.70;28.30;;;;;;5088121;28;20447;-86
2022/03/12 07:17:48;;;;;;;6.87;3.70;;;7.70;28.50;;;;;;5088821;28;20444;-85
2022/03/12 07:20:17;;;;;;;6.07;3.67;;;7.70;27.60;;;;;;5088867;28;20451;-85
2022/03/12 07:22:44;;;;;;;5.60;3.60;;;7.50;25.80;;;;;;5089112;28;20870;-84
2022/03/12 07:25:13;;;;;;;4.83;4.07;;;7.20;25.80;;;;;;5088862;28;20951;-85
2022/03/12 07:27:40;;;;;;;7.60;4.53;;;7.30;25.70;;;;;;5090951;28;21001;-84
2022/03/12 07:30:09;;;;;;;6.53;4.13;;;7.20;25.00;;;;;;5084501;28;20443;-83
2022/03/12 07:32:36;;;;;;;8.53;4.50;;;7.10;25.50;;;;;;5070108;28;20485;-85
2022/03/12 07:35:06;;;;;;;7.93;6.13;;;7.30;25.80;;;;;;5077934;28;20442;-84
2022/03/12 07:37:33;;;;;;;5.83;3.50;;;7.40;26.10;;;;;;5089399;28;21026;-85
2022/03/12 07:40:00;;;;;;;13.93;5.83;;;7.30;24.80;;;;;;5091089;28;20455;-85
2022/03/12 07:42:27;;;;;;;8.40;4.20;;;7.20;24.30;;;;;;5078823;28;20472;-85
2022/03/12 07:44:54;;;;;;;10.73;4.57;;;7.10;24.40;;;;;;5085754;28;20467;-86
2022/03/12 07:47:21;;;;;;;8.80;4.70;;;7.10;25.10;;;;;;5091502;28;20458;-85
2022/03/12 07:49:48;;;;;;;10.57;4.80;;;7.00;24.50;;;;;;5075045;28;20438;-86
2022/03/12 07:52:16;;;;;;;7.07;4.60;;;6.90;24.50;;;;;;5088000;28;21247;-85
2022/03/12 07:54:43;;;;;;;8.47;3.47;;;7.00;24.40;;;;;;5090275;28;20471;-86
2022/03/12 07:57:10;;;;;;;11.43;4.70;;;7.10;24.70;;;;;;5078987;28;20451;-86
2022/03/12 07:59:38;;;;;;;8.07;5.57;;;7.10;24.70;;;;;;5091013;28;20451;-87
2022/03/12 08:02:06;;;;;;;5.27;3.47;;;7.00;24.90;;;;;;5077417;28;20904;-86
2022/03/12 08:04:35;;;;;;;7.00;3.57;;;6.90;24.30;;;;;;5057494;28;20470;-85
2022/03/12 08:07:03;;;;;;;6.03;3.80;;;6.90;24.70;;;;;;5090167;28;20451;-86
2022/03/12 08:09:33;;;;;;;5.63;4.13;;;7.00;25.00;;;;;;5091457;28;20455;-86
2022/03/12 08:12:00;;;;;;;7.77;3.40;;;7.10;24.80;;;;;;5079055;28;20467;-85
2022/03/12 08:14:27;;;;;;;4.00;3.70;;;7.10;25.40;;;;;;5078089;28;20442;-86
2022/03/12 08:16:54;;;;;;;8.53;4.00;;;7.40;25.40;;;;;;5091997;28;20447;-86
2022/03/12 08:19:22;;;;;;;5.67;4.30;;;7.40;24.90;;;;;;5065062;28;20443;-84
2022/03/12 08:21:50;;;;;;;5.90;3.60;;;7.40;25.10;;;;;;5074304;28;20463;-84
2022/03/12 08:24:18;;;;;;;9.80;4.20;;;7.60;25.00;;;;;;5086268;28;20563;-86
2022/03/12 08:26:48;;;;;;;9.73;3.93;;;7.80;25.70;;;;;;5087987;28;20443;-86
2022/03/12 08:29:17;;;;;;;12.13;5.43;;;7.80;24.60;;;;;;5089284;28;20447;-85
2022/03/12 08:31:44;;;;;;;7.80;4.43;;;8.00;25.50;;;;;;5091230;28;20470;-84
2022/03/12 08:34:13;;;;;;;11.80;5.20;;;8.00;24.30;;;;;;5089371;28;20439;-87
2022/03/12 08:36:41;;;;;;;8.00;4.60;;;7.80;24.50;;;;;;5088587;28;20440;-87
2022/03/12 08:39:08;;;;;;;11.30;5.83;;;7.90;24.80;;;;;;5062440;28;20816;-85
2022/03/12 08:41:35;;;;;;;4.83;4.10;;;7.90;24.40;;;;;;5090365;28;20525;-87
2022/03/12 08:44:04;;;;;;;27.73;4.93;;;7.80;24.70;;;;;;5087316;28;20590;-86
2022/03/12 08:46:31;;;;;;;5.37;3.97;;;7.90;24.70;;;;;;5071372;28;20473;-86
2022/03/12 08:48:58;;;;;;;6.47;4.17;;;8.00;24.70;;;;;;5078147;28;20443;-85
2022/03/12 08:51:25;;;;;;;5.00;4.10;;;8.30;24.30;;;;;;5089483;28;20802;-84
2022/03/12 08:53:52;;;;;;;5.00;4.13;;;8.30;24.30;;;;;;5090658;28;20458;-86
2022/03/12 08:56:19;;;;;;;4.80;4.30;;;8.30;24.20;;;;;;5088728;28;20524;-87
2022/03/12 08:58:47;;;;;;;6.63;3.50;;;8.20;24.10;;;;;;5088302;28;20466;-88
2022/03/12 09:01:16;;;;;;;9.00;4.37;;;8.20;24.60;;;;;;5091348;28;20476;-88
2022/03/12 09:03:43;;;;;;;7.07;4.13;;;8.20;24.40;;;;;;5055016;28;20970;-87
2022/03/12 09:06:10;;;;;;;7.40;3.63;;;8.30;24.30;;;;;;5061083;28;20436;-88
2022/03/12 09:08:38;;;;;;;9.57;4.83;;;8.30;24.40;;;;;;5061557;28;20649;-86
2022/03/12 09:11:05;;;;;;;48.03;25.40;;;8.40;24.70;;;;;;5079105;28;20455;-88
2022/03/12 09:13:32;;;;;;;7.47;5.60;;;8.60;24.60;;;;;;5079060;28;20467;-88
2022/03/12 09:16:00;;;;;;;7.60;4.97;;;8.70;24.20;;;;;;5088785;28;20708;-87
2022/03/12 09:18:29;;;;;;;6.27;4.53;;;8.90;24.10;;;;;;5075290;28;20489;-88
2022/03/12 09:20:56;;;;;;;7.90;5.23;;;8.90;24.30;;;;;;5095540;28;20458;-87
2022/03/12 09:23:23;;;;;;;6.40;4.70;;;9.00;24.10;;;;;;5065952;28;20445;-87
2022/03/12 09:25:51;;;;;;;9.40;5.27;;;9.00;23.90;;;;;;5099578;28;21053;-87
2022/03/12 09:28:21;;;;;;;16.90;6.77;;;9.00;24.20;;;;;;5077642;28;20488;-86
2022/03/12 09:30:50;;;;;;;7.37;4.57;;;9.10;24.70;;;;;;5081324;28;20447;-87
2022/03/12 09:33:18;;;;;;;7.87;5.67;;;9.30;24.20;;;;;;5090903;28;20982;-87
2022/03/12 09:35:46;;;;;;;8.67;4.83;;;9.40;23.90;;;;;;5072369;28;20431;-85
2022/03/12 09:38:14;;;;;;;7.70;4.30;;;9.60;24.00;;;;;;5088802;28;20447;-88
2022/03/12 09:40:42;;;;;;;7.83;4.47;;;9.80;25.10;;;;;;5094415;28;20820;-87
2022/03/12 09:43:09;;;;;;;9.43;5.73;;;9.80;23.70;;;;;;5066916;28;20559;-86
2022/03/12 09:45:37;;;;;;;7.47;5.07;;;9.80;24.80;;;;;;5091721;28;21121;-87
2022/03/12 09:48:05;;;;;;;9.00;5.20;;;10.10;23.10;;;;;;5090518;28;20452;-88
2022/03/12 09:50:33;;;;;;;6.80;5.23;;;10.30;22.90;;;;;;5090986;28;20446;-86
2022/03/12 09:53:02;;;;;;;5.03;4.63;;;10.40;22.00;;;;;;5090776;28;20597;-88
2022/03/12 09:55:29;;;;;;;7.70;5.23;;;10.20;22.40;;;;;;5093243;28;20456;-88
2022/03/12 09:57:56;;;;;;;9.30;4.00;;;10.20;22.80;;;;;;5064225;28;20454;-87
2022/03/12 10:00:25;;;;;;;7.00;5.20;;;10.60;22.10;;;;;;5075148;28;20439;-88
2022/03/12 10:02:52;;;;;;;11.63;5.90;;;10.90;22.00;;;;;;5089186;28;20476;-88
2022/03/12 10:05:19;;;;;;;22.60;6.03;;;11.10;22.10;;;;;;5092207;28;20464;-86
2022/03/12 10:07:46;;;;;;;12.80;5.23;;;11.00;21.90;;;;;;5091794;28;21020;-85
2022/03/12 10:10:16;;;;;;;6.70;4.33;;;11.10;21.20;;;;;;5092410;28;20469;-86
2022/03/12 10:12:43;;;;;;;9.17;5.10;;;11.30;21.70;;;;;;5064640;28;20462;-86
2022/03/12 10:15:11;;;;;;;9.43;5.60;;;11.50;21.50;;;;;;5093633;28;20827;-86
2022/03/12 10:17:38;;;;;;;5.90;4.80;;;11.50;21.10;;;;;;5072891;28;20448;-85
2022/03/12 10:20:11;;;;;;;7.13;5.17;;;11.40;21.00;;;;;;5079566;28;20486;-86
2022/03/12 10:22:43;;;;;;;6.60;4.93;;;11.40;21.10;;;;;;5081721;28;20482;-86
2022/03/12 10:25:12;;;;;;;10.10;6.43;;;11.40;21.10;;;;;;5089592;28;20480;-86
2022/03/12 10:27:40;;;;;;;6.57;5.60;;;11.40;21.10;;;;;;5081659;28;20753;-86
2022/03/12 10:30:08;;;;;;;10.70;4.90;;;11.30;21.30;;;;;;5090004;28;20458;-85
2022/03/12 10:32:44;;;;;;;7.50;5.83;;;11.50;21.10;;;;;;5093599;28;20839;-86
2022/03/12 10:35:12;;;;;;;14.57;5.63;;;11.90;21.30;;;;;;5092399;28;20532;-86
2022/03/12 10:37:40;;;;;;;11.60;5.70;;;12.20;20.60;;;;;;5088496;28;20447;-86
2022/03/12 10:40:10;;;;;;;7.70;5.00;;;12.30;20.60;;;;;;5082856;28;20497;-85
2022/03/12 10:42:45;;;;;;;8.00;5.23;;;12.20;20.70;;;;;;5078237;28;20466;-84
2022/03/12 10:45:14;;;;;;;7.20;4.87;;;12.20;20.90;;;;;;5094241;28;20558;-84
2022/03/12 10:47:43;;;;;;;8.27;5.73;;;12.30;20.60;;;;;;5091511;27;20594;-84
2022/03/12 10:50:15;;;;;;;12.17;5.97;;;12.50;20.50;;;;;;5091611;28;20460;-84
2022/03/12 10:52:49;;;;;;;8.50;5.27;;;12.70;20.40;;;;;;5091419;28;20906;-84
2022/03/12 10:55:19;;;;;;;10.27;5.70;;;12.90;20.10;;;;;;5091463;28;20444;-85
2022/03/12 10:57:59;;;;;;;11.60;5.47;;;13.00;20.40;;;;;;5084771;28;20808;-85
2022/03/12 11:00:28;;;;;;;7.20;4.40;;;13.20;20.00;;;;;;5089966;28;20491;-84
2022/03/12 11:02:57;;;;;;;7.80;6.37;;;13.20;19.90;;;;;;5091175;28;20517;-85
2022/03/12 11:05:29;;;;;;;8.03;4.50;;;13.00;19.90;;;;;;5088967;28;20451;-85
2022/03/12 11:08:17;;;;;;;11.33;5.97;;;13.00;19.70;;;;;;5087776;28;20459;-84
2022/03/12 11:10:46;;;;;;;10.43;5.70;;;13.20;20.20;;;;;;5086254;28;20566;-83
2022/03/12 11:13:36;;;;;;;14.27;5.30;;;13.50;20.20;;;;;;5090727;28;21018;-87
2022/03/12 11:16:12;;;;;;;6.40;5.23;;;13.40;24.80;;;;;;5074586;28;22083;-88
2022/03/12 11:18:48;;;;;;;14.83;7.53;;;13.90;24.50;;;;;;5093144;28;20909;-88
2022/03/12 11:21:25;;;;;;;9.00;5.57;;;14.20;22.80;;;;;;5093574;28;20478;-87
2022/03/12 11:23:53;;;;;;;12.70;5.43;;;14.40;22.00;;;;;;5075652;28;20508;-88
2022/03/12 11:26:20;;;;;;;8.23;5.10;;;14.60;21.20;;;;;;5083753;28;20474;-85
2022/03/12 11:28:56;;;;;;;6.63;5.93;;;14.80;20.00;;;;;;5069841;28;20452;-86
2022/03/12 11:31:38;;;;;;;9.00;5.50;;;15.00;20.00;;;;;;5090478;28;20560;-87
2022/03/12 11:34:20;;;;;;;8.60;5.77;;;15.00;18.90;;;;;;5091078;28;20455;-87
2022/03/12 11:36:59;;;;;;;13.43;7.70;;;15.10;19.40;;;;;;5087990;28;20546;-86
2022/03/12 11:39:29;;;;;;;7.70;6.10;;;15.30;19.00;;;;;;5091825;28;20930;-83
2022/03/12 11:42:11;;;;;;;8.10;4.70;;;15.00;19.70;;;;;;5086542;28;20525;-85
2022/03/12 11:44:44;;;;;;;12.43;7.07;;;15.10;19.70;;;;;;5085890;28;20918;-85
2022/03/12 11:47:12;;;;;;;9.83;6.50;;;15.50;19.90;;;;;;5087764;28;20452;-87
2022/03/12 11:49:40;;;;;;;10.77;6.00;;;15.40;19.30;;;;;;5090511;28;20459;-84
2022/03/12 11:52:08;;;;;;;7.40;5.80;;;15.60;19.00;;;;;;5097541;28;20478;-86
2022/03/12 11:54:40;;;;;;;11.83;8.23;;;15.70;19.60;;;;;;5071541;28;20435;-86
2022/03/12 11:57:07;;;;;;;7.27;5.50;;;15.80;19.70;;;;;;5078448;28;20452;-85
2022/03/12 11:59:35;;;;;;;7.13;5.47;;;15.40;19.10;;;;;;5089774;28;20505;-85
2022/03/12 12:02:18;;;;;;;8.30;6.00;;;15.40;19.30;;;;;;5087146;28;20481;-85
2022/03/12 12:04:44;;;;;;;9.47;5.90;;;15.60;19.50;;;;;;5089887;28;20475;-86
2022/03/12 12:07:12;;;;;;;9.53;5.67;;;15.70;19.80;;;;;;5075934;28;20894;-85
2022/03/12 12:09:41;;;;;;;9.40;6.37;;;16.10;19.40;;;;;;5091775;28;20436;-87
2022/03/12 12:12:13;;;;;;;8.43;6.00;;;16.10;19.10;;;;;;5092025;27;20544;-86
2022/03/12 12:14:40;;;;;;;14.70;5.50;;;15.90;19.10;;;;;;5091280;28;20452;-85
2022/03/12 12:17:09;;;;;;;8.60;5.77;;;15.80;18.80;;;;;;5092038;28;20468;-86
2022/03/12 12:19:36;;;;;;;7.27;6.00;;;16.10;19.50;;;;;;5085315;28;20772;-85
2022/03/12 12:22:07;;;;;;;7.27;5.87;;;15.80;19.00;;;;;;5078507;28;20471;-86
2022/03/12 12:24:39;;;;;;;6.27;5.67;;;15.70;19.30;;;;;;5104714;27;20524;-85
2022/03/12 12:27:08;;;;;;;16.70;9.20;;;15.90;19.40;;;;;;5090900;28;20457;-85
2022/03/12 12:29:46;;;;;;;10.00;6.93;;;16.00;19.90;;;;;;5089737;28;20455;-86
2022/03/12 12:32:17;;;;;;;13.80;6.70;;;16.30;19.50;;;;;;5090052;28;21913;-86
2022/03/12 12:35:06;;;;;;;8.87;5.87;;;16.70;20.00;;;;;;5088390;28;20462;-85
2022/03/12 12:37:47;;;;;;;11.33;6.03;;;16.80;19.60;;;;;;5091471;28;20453;-85
2022/03/12 12:40:24;;;;;;;9.97;7.20;;;16.90;19.50;;;;;;5093011;28;20458;-87
2022/03/12 12:42:53;;;;;;;13.57;6.37;;;16.80;19.40;;;;;;5090022;28;20489;-85
2022/03/12 12:45:21;;;;;;;11.00;6.80;;;16.70;19.80;;;;;;5090961;28;20463;-85
2022/03/12 12:48:08;;;;;;;10.80;6.33;;;16.90;19.80;;;;;;5091258;28;20934;-84
2022/03/12 12:50:35;;;;;;;10.30;5.87;;;17.10;19.60;;;;;;5092200;28;20455;-85
2022/03/12 12:53:16;;;;;;;10.00;6.77;;;17.20;19.40;;;;;;5091972;28;20475;-85
2022/03/12 12:55:45;;;;;;;11.33;7.03;;;17.30;19.80;;;;;;5089457;28;20450;-85
2022/03/12 12:58:13;;;;;;;13.03;7.50;;;17.20;19.30;;;;;;5087143;28;20851;-86
2022/03/12 13:00:43;;;;;;;10.50;7.03;;;17.50;19.30;;;;;;5086879;28;20955;-85
2022/03/12 13:03:18;;;;;;;17.13;7.40;;;17.50;19.60;;;;;;5088465;28;20806;-86